Time;durP1;ratioP1;P1;durP2;ratioP2;P2;SDS_P1;SDS_P2;PMS_P1;PMS_P2;Temp;Humidity;BMP_temperature;BMP_pressure;BME280_temperature;BME280_humidity;BME280_pressure;Samples;Min_cycle;Max_cycle;Signal;HPM_P1;HPM_P2
2022/01/02 00:01:19;;;;;;;;;10.50;10.50;;;;;20.99;41.98;101470.88;5058336;28;45738;-54
2022/01/02 00:03:49;;;;;;;;;8.00;8.00;;;;;20.98;42.42;101477.06;5059641;28;45840;-51
2022/01/02 00:06:23;;;;;;;;;10.25;9.25;;;;;20.97;42.37;101483.25;5059608;28;45552;-51
2022/01/02 00:08:55;;;;;;;;;9.75;9.75;;;;;20.96;42.26;101483.31;5059043;28;45437;-51
2022/01/02 00:11:24;;;;;;;;;13.50;11.25;;;;;20.93;42.43;101480.84;5059168;28;46400;-53
2022/01/02 00:13:55;;;;;;;;;10.25;10.25;;;;;20.91;41.97;101467.72;5059181;28;45330;-53
2022/01/02 00:16:21;;;;;;;;;11.00;9.75;;;;;20.90;42.22;101466.00;5059346;28;45376;-52
2022/01/02 00:19:04;;;;;;;;;11.75;10.50;;;;;20.90;42.46;101471.28;5058856;28;45396;-56
2022/01/02 00:21:32;;;;;;;;;11.50;10.75;;;;;20.89;42.64;101472.19;5058931;28;45938;-53
2022/01/02 00:24:04;;;;;;;;;10.50;10.50;;;;;20.87;42.66;101473.19;5059151;28;45404;-55
2022/01/02 00:26:44;;;;;;;;;10.25;10.25;;;;;20.86;42.28;101480.25;5041008;28;45534;-53
2022/01/02 00:29:11;;;;;;;;;11.00;10.25;;;;;20.85;42.26;101486.47;5059105;28;46239;-54
2022/01/02 00:31:39;;;;;;;;;10.75;9.75;;;;;20.84;42.05;101487.38;5059113;28;45849;-57
2022/01/02 00:34:05;;;;;;;;;9.25;8.50;;;;;20.83;42.56;101486.53;5058826;28;45365;-56
2022/01/02 00:36:32;;;;;;;;;10.75;10.00;;;;;20.83;42.74;101488.31;5058994;28;45484;-56
2022/01/02 00:38:57;;;;;;;;;9.25;9.25;;;;;20.82;42.21;101478.69;5058640;28;46476;-55
2022/01/02 00:41:27;;;;;;;;;11.00;9.25;;;;;20.81;42.02;101466.44;5058707;28;45403;-55
2022/01/02 00:44:11;;;;;;;;;10.25;10.00;;;;;20.81;42.57;101466.44;5041160;28;45298;-56
2022/01/02 00:46:57;;;;;;;;;10.75;10.00;;;;;20.80;42.37;101464.72;5058928;28;45593;-55
2022/01/02 00:49:26;;;;;;;;;9.50;8.00;;;;;20.79;42.58;101481.44;5058773;28;46548;-54
2022/01/02 00:52:15;;;;;;;;;8.50;7.75;;;;;20.78;42.29;101485.03;5058562;28;45738;-56
2022/01/02 00:54:44;;;;;;;;;16.25;10.00;;;;;20.76;42.40;101484.25;5040924;28;45457;-55
2022/01/02 00:57:16;;;;;;;;;10.25;10.00;;;;;20.76;42.19;101489.53;5040886;28;45553;-55
2022/01/02 01:00:03;;;;;;;;;9.25;9.25;;;;;20.72;42.16;101469.47;5058583;28;46638;-55
2022/01/02 01:02:33;;;;;;;;;13.00;10.75;;;;;20.71;42.15;101455.47;5058290;28;45982;-53
2022/01/02 01:05:02;;;;;;;;;10.75;9.00;;;;;20.73;42.51;101444.84;5058485;28;45371;-55
2022/01/02 01:07:30;;;;;;;;;13.75;12.00;;;;;20.72;42.35;101435.22;5058336;28;45510;-51
2022/01/02 01:09:57;;;;;;;;;12.25;10.75;;;;;20.70;42.33;101444.06;5058248;28;46469;-52
2022/01/02 01:12:23;;;;;;;;;10.50;9.75;;;;;20.67;42.70;101432.81;5039513;28;46063;-56
2022/01/02 01:14:50;;;;;;;;;9.00;9.00;;;;;20.68;42.61;101424.81;5040240;28;45465;-55
2022/01/02 01:17:16;;;;;;;;;14.25;12.00;;;;;20.67;42.35;101423.09;5058334;28;45439;-55
2022/01/02 01:19:42;;;;;;;;;12.25;10.25;;;;;20.67;42.15;101403.84;5057924;28;45882;-56
2022/01/02 01:22:08;;;;;;;;;12.50;10.75;;;;;20.66;42.54;101400.34;5057995;28;45876;-60
2022/01/02 01:24:35;;;;;;;;;11.00;11.00;;;;;20.64;41.99;101399.56;5058323;28;45574;-54
2022/01/02 01:27:04;;;;;;;;;10.00;10.00;;;;;20.63;42.71;101392.59;5058200;28;45524;-56
2022/01/02 01:29:34;;;;;;;;;9.00;9.00;;;;;20.62;42.34;101392.66;5057950;28;46178;-54
2022/01/02 01:32:07;;;;;;;;;11.75;11.00;;;;;20.62;42.31;101403.19;5057977;28;45936;-53
2022/01/02 01:34:32;;;;;;;;;9.50;9.50;;;;;20.62;42.38;101422.50;5057996;28;45311;-52
2022/01/02 01:36:58;;;;;;;;;10.00;10.00;;;;;20.60;42.20;101415.59;5039955;28;45542;-56
2022/01/02 01:39:23;;;;;;;;;9.50;9.50;;;;;20.61;42.87;101418.16;5057743;28;46245;-55
2022/01/02 01:41:52;;;;;;;;;9.50;9.50;;;;;20.59;42.40;101401.56;5057657;28;45418;-54
2022/01/02 01:46:44;;;;;;;;;12.50;10.00;;;;;20.57;42.41;101399.94;5058400;28;45164;-54
2022/01/02 01:49:19;;;;;;;;;9.25;8.25;;;;;20.57;42.71;101400.75;5057496;28;47175;-53
2022/01/02 01:51:45;;;;;;;;;9.25;9.25;;;;;20.55;42.38;101398.22;5058012;28;45874;-56
2022/01/02 01:54:10;;;;;;;;;12.75;11.00;;;;;20.54;42.39;101388.59;5057762;28;45352;-54
2022/01/02 01:56:37;;;;;;;;;11.00;10.00;;;;;20.57;42.66;101378.84;5058003;28;45806;-49
2022/01/02 01:59:03;;;;;;;;;10.50;9.50;;;;;20.53;42.12;101375.53;5057521;28;45670;-51
2022/01/02 02:01:29;;;;;;;;;12.75;11.50;;;;;20.53;42.69;101376.34;5057428;28;45389;-52
2022/01/02 02:03:56;;;;;;;;;12.75;11.00;;;;;20.53;42.56;101372.88;5057585;28;45389;-55
2022/01/02 02:06:21;;;;;;;;;11.00;11.00;;;;;20.52;42.32;101368.53;5057783;28;45547;-52
2022/01/02 02:08:47;;;;;;;;;9.75;9.25;;;;;20.51;42.58;101380.84;5056682;28;45467;-49
2022/01/02 02:11:13;;;;;;;;;10.00;10.00;;;;;20.51;42.39;101374.72;5057642;28;45237;-53
2022/01/02 02:13:38;;;;;;;;;13.25;11.75;;;;;20.49;42.67;101364.28;5057383;28;45250;-53
2022/01/02 02:16:05;;;;;;;;;10.00;10.00;;;;;20.49;42.46;101351.13;5057420;28;45541;-56
2022/01/02 02:18:30;;;;;;;;;14.50;10.00;;;;;20.48;42.68;101359.94;5057139;28;45336;-57
2022/01/02 02:20:55;;;;;;;;;13.75;10.75;;;;;20.48;42.18;101348.53;5039156;28;45304;-57
2022/01/02 02:23:21;;;;;;;;;11.00;9.25;;;;;20.47;42.87;101337.16;5056582;28;45225;-56
2022/01/02 02:25:46;;;;;;;;;12.00;10.25;;;;;20.45;42.67;101338.16;5057365;28;45356;-56
2022/01/02 02:28:16;;;;;;;;;9.50;9.50;;;;;20.45;42.50;101327.63;5057214;28;46494;-54
2022/01/02 02:30:44;;;;;;;;;8.75;8.75;;;;;20.45;42.76;101338.16;5057053;28;45835;-53
2022/01/02 02:33:11;;;;;;;;;11.00;9.75;;;;;20.46;42.46;101331.94;5057101;28;45304;-59
2022/01/02 02:35:39;;;;;;;;;14.75;11.00;;;;;20.44;42.41;101331.19;5057334;28;45533;-57
2022/01/02 02:38:07;;;;;;;;;11.25;10.50;;;;;20.43;42.23;101329.47;5038734;28;46909;-54
2022/01/02 02:40:32;;;;;;;;;11.00;9.75;;;;;20.44;42.50;101326.75;5056865;28;45198;-54
2022/01/02 02:51:03;;;;;;;;;10.25;10.25;;;;;20.40;42.12;101290.97;5056807;28;45332;-56
2022/01/02 02:53:29;;;;;;;;;9.75;8.00;;;;;20.38;42.59;101291.06;5056862;28;45321;-57
2022/01/02 02:55:57;;;;;;;;;10.50;9.00;;;;;20.39;42.80;101286.66;5056876;28;45681;-57
2022/01/02 02:58:44;;;;;;;;;8.25;8.25;;;;;20.36;42.38;101271.84;5056479;28;45853;-58
2022/01/02 03:01:11;;;;;;;;;13.00;10.25;;;;;20.38;42.78;101279.69;5056165;28;45629;-58
2022/01/02 03:03:37;;;;;;;;;7.25;7.25;;;;;20.36;42.31;101281.53;5056736;28;45351;-56
2022/01/02 03:06:03;;;;;;;;;10.00;10.00;;;;;20.35;42.72;101285.09;5056875;28;45405;-57
2022/01/02 03:08:28;;;;;;;;;11.00;10.50;;;;;20.35;42.67;101285.09;5056170;28;45516;-54
2022/01/02 03:10:54;;;;;;;;;10.25;9.75;;;;;20.34;42.21;101286.84;5038434;28;45301;-57
2022/01/02 03:13:19;;;;;;;;;10.00;9.50;;;;;20.35;42.36;101292.97;5056840;28;45330;-59
2022/01/02 03:15:44;;;;;;;;;8.25;8.00;;;;;20.34;42.39;101278.09;5056832;28;45662;-55
2022/01/02 03:18:10;;;;;;;;;10.25;9.25;;;;;20.33;42.63;101264.09;5056469;28;46274;-62
2022/01/02 03:20:35;;;;;;;;;10.75;9.25;;;;;20.33;42.88;101250.94;5056292;28;45241;-60
2022/01/02 03:23:01;;;;;;;;;9.00;9.00;;;;;20.34;42.65;101251.78;5056377;28;45364;-59
2022/01/02 03:25:26;;;;;;;;;10.25;9.75;;;;;20.32;42.89;101256.25;5056565;28;45412;-58
2022/01/02 03:27:51;;;;;;;;;10.50;10.25;;;;;20.31;42.60;101273.84;5056071;28;45408;-58
2022/01/02 03:30:17;;;;;;;;;12.75;11.50;;;;;20.32;42.40;101307.16;5056470;28;45454;-58
2022/01/02 03:32:42;;;;;;;;;8.75;8.00;;;;;20.31;42.61;101300.19;5056274;28;45372;-58
2022/01/02 03:35:08;;;;;;;;;7.50;7.50;;;;;20.31;42.90;101302.81;5057125;28;45502;-60
2022/01/02 03:37:34;;;;;;;;;9.25;9.25;;;;;20.32;42.26;101288.72;5059574;28;45408;-57
2022/01/02 03:40:01;;;;;;;;;9.75;7.75;;;;;20.31;42.51;101287.00;5059667;28;45447;-58
2022/01/02 03:42:27;;;;;;;;;11.50;10.50;;;;;20.30;42.55;101280.03;5059841;28;45256;-57
2022/01/02 03:44:52;;;;;;;;;13.00;9.00;;;;;20.30;42.78;101287.94;5059946;28;45411;-61
2022/01/02 03:47:18;;;;;;;;;12.25;11.00;;;;;20.30;42.63;101277.41;5059873;28;45243;-58
2022/01/02 03:49:44;;;;;;;;;9.00;7.75;;;;;20.30;42.44;101279.16;5059511;28;45335;-58
2022/01/02 03:52:09;;;;;;;;;10.25;9.25;;;;;20.29;42.86;101262.53;5059594;28;45257;-58
2022/01/02 03:54:35;;;;;;;;;10.50;9.25;;;;;20.29;42.86;101262.53;5059730;28;45589;-58
2022/01/02 03:57:01;;;;;;;;;9.25;8.00;;;;;20.28;42.65;101258.19;5059269;28;45530;-59
2022/01/02 03:59:27;;;;;;;;;10.75;9.00;;;;;20.27;42.79;101256.47;5059439;28;45548;-57
2022/01/02 04:01:52;;;;;;;;;10.00;9.00;;;;;20.27;42.92;101256.47;5059617;28;45317;-59
2022/01/02 04:04:18;;;;;;;;;10.00;10.00;;;;;20.27;42.79;101259.13;5059936;28;45341;-57
2022/01/02 04:06:43;;;;;;;;;7.75;7.75;;;;;20.27;42.71;101267.00;5059288;28;46477;-59
2022/01/02 04:09:08;;;;;;;;;7.50;7.50;;;;;20.27;42.59;101255.66;5059017;28;45381;-58
2022/01/02 04:11:34;;;;;;;;;10.00;8.00;;;;;20.24;42.46;101254.84;5059383;28;45338;-58
2022/01/02 04:13:59;;;;;;;;;9.50;8.75;;;;;20.23;42.44;101254.91;5059438;28;45328;-59
2022/01/02 04:16:24;;;;;;;;;8.00;8.00;;;;;20.23;42.49;101249.66;5059011;28;46331;-59
2022/01/02 04:18:50;;;;;;;;;8.25;8.00;;;;;20.24;42.60;101261.88;5059413;28;45331;-57
2022/01/02 04:21:15;;;;;;;;;7.50;7.50;;;;;20.23;42.32;101244.38;5041083;28;45432;-59
2022/01/02 04:23:41;;;;;;;;;9.00;7.00;;;;;20.26;42.93;101248.69;5059324;28;45351;-57
2022/01/02 04:26:07;;;;;;;;;11.00;9.00;;;;;20.23;42.71;101225.97;5058818;28;47648;-57
2022/01/02 04:28:32;;;;;;;;;7.50;7.00;;;;;20.22;42.89;101224.28;5058922;28;45348;-58
2022/01/02 04:30:57;;;;;;;;;7.00;7.00;;;;;20.22;42.68;101226.91;5059045;28;45356;-59
2022/01/02 04:33:23;;;;;;;;;11.25;9.50;;;;;20.23;42.76;101241.75;5059479;28;45325;-56
2022/01/02 04:35:48;;;;;;;;;8.75;8.75;;;;;20.21;42.47;101233.94;5023920;28;46847;-56
2022/01/02 04:38:14;;;;;;;;;8.00;7.25;;;;;20.22;42.50;101237.44;5058909;28;45366;-58
2022/01/02 04:40:40;;;;;;;;;7.25;7.25;;;;;20.22;42.65;101226.91;5059009;28;45452;-56
2022/01/02 04:43:06;;;;;;;;;11.50;9.75;;;;;20.21;42.43;101231.31;5059086;28;45498;-58
2022/01/02 04:45:31;;;;;;;;;12.50;10.00;;;;;20.20;42.40;101226.97;5058551;28;45617;-57
2022/01/02 04:47:57;;;;;;;;;9.75;9.75;;;;;20.19;42.44;101217.38;5057695;28;45439;-59
2022/01/02 04:50:23;;;;;;;;;10.00;9.75;;;;;20.20;42.22;101213.81;5058926;28;45371;-56
2022/01/02 04:52:48;;;;;;;;;9.00;9.00;;;;;20.20;42.33;101205.06;5058876;28;45577;-60
2022/01/02 04:55:14;;;;;;;;;9.50;9.50;;;;;20.18;42.95;101199.88;5058367;28;46409;-55
2022/01/02 04:57:39;;;;;;;;;7.75;7.00;;;;;20.18;42.31;101201.66;5058571;28;45303;-58
2022/01/02 05:00:06;;;;;;;;;8.75;8.25;;;;;20.19;42.91;101195.47;5058820;28;45293;-57
2022/01/02 05:02:32;;;;;;;;;8.00;8.00;;;;;20.18;42.38;101185.88;5058859;28;45586;-58
2022/01/02 05:04:57;;;;;;;;;5.25;5.25;;;;;20.18;42.82;101177.97;5058351;28;46273;-58
2022/01/02 05:07:23;;;;;;;;;9.00;7.00;;;;;20.17;42.54;101161.34;5058776;28;45317;-56
2022/01/02 05:09:48;;;;;;;;;10.50;9.00;;;;;20.16;42.79;101145.59;5040457;28;45232;-58
2022/01/02 05:12:13;;;;;;;;;11.25;10.00;;;;;20.18;42.40;101162.19;5058630;28;45593;-58
2022/01/02 05:14:39;;;;;;;;;7.50;7.50;;;;;20.16;42.87;101161.41;5058075;28;45328;-58
2022/01/02 05:17:04;;;;;;;;;10.00;10.00;;;;;20.14;42.57;101179.03;5058228;28;45356;-58
2022/01/02 05:19:30;;;;;;;;;9.50;7.75;;;;;20.14;42.87;101182.53;5040494;28;45560;-57
2022/01/02 05:21:55;;;;;;;;;8.00;7.00;;;;;20.16;42.25;101195.59;5058803;28;45213;-56
2022/01/02 05:24:20;;;;;;;;;7.50;7.50;;;;;20.15;42.71;101205.31;5058222;28;46477;-57
2022/01/02 05:26:46;;;;;;;;;7.00;7.00;;;;;20.15;42.72;101189.50;5058092;28;45637;-57
2022/01/02 05:29:11;;;;;;;;;8.50;6.75;;;;;20.14;42.37;101177.28;5058419;28;45375;-56
2022/01/02 05:31:36;;;;;;;;;8.75;7.75;;;;;20.14;42.32;101163.25;5058264;28;45312;-55
2022/01/02 05:34:02;;;;;;;;;7.50;7.50;;;;;20.08;41.65;101170.53;5057500;28;46645;-59
2022/01/02 05:36:28;;;;;;;;;10.50;10.50;;;;;19.92;41.50;101159.00;5057863;28;45412;-50
2022/01/02 05:38:53;;;;;;;;;10.25;8.50;;;;;19.75;41.91;101165.03;5058313;28;45313;-53
2022/01/02 05:41:19;;;;;;;;;9.50;9.50;;;;;19.55;42.01;101160.72;5040051;28;45418;-55
2022/01/02 05:43:44;;;;;;;;;12.50;10.25;;;;;19.41;42.16;101167.47;5057751;28;46451;-56
2022/01/02 05:46:10;;;;;;;;;11.75;10.75;;;;;19.31;42.14;101171.44;5057740;28;45400;-53
2022/01/02 05:48:36;;;;;;;;;9.50;8.25;;;;;19.19;42.10;101167.56;5057823;28;45319;-56
2022/01/02 05:51:02;;;;;;;;;10.50;10.00;;;;;19.08;42.89;101165.41;5057987;28;45438;-55
2022/01/02 05:53:30;;;;;;;;;13.75;10.50;;;;;18.95;42.49;101162.47;5057801;28;45333;-56
2022/01/02 05:55:56;;;;;;;;;10.00;9.50;;;;;18.89;42.67;101182.88;5058040;28;45194;-54
2022/01/02 05:58:22;;;;;;;;;10.00;10.00;;;;;18.83;42.58;101197.13;5057674;28;45428;-54
2022/01/02 06:00:47;;;;;;;;;11.50;10.50;;;;;18.81;43.21;101188.44;5057870;28;45445;-58
2022/01/02 06:03:12;;;;;;;;;10.50;8.50;;;;;18.88;43.20;101189.03;5057412;28;45603;-55
2022/01/02 06:05:38;;;;;;;;;10.25;10.25;;;;;18.97;43.40;101186.03;5057391;28;45667;-57
2022/01/02 06:08:03;;;;;;;;;8.50;7.25;;;;;19.07;43.11;101168.97;5057428;28;45325;-57
2022/01/02 06:10:29;;;;;;;;;13.00;10.75;;;;;19.16;42.93;101173.81;5057702;28;45812;-56
2022/01/02 06:12:54;;;;;;;;;12.00;9.75;;;;;19.22;42.89;101163.97;5057634;28;45422;-54
2022/01/02 06:15:19;;;;;;;;;9.75;9.00;;;;;19.31;43.18;101166.16;5057332;28;45443;-57
2022/01/02 06:17:44;;;;;;;;;13.25;9.75;;;;;19.36;42.94;101164.16;5057399;28;45357;-55
2022/01/02 06:20:10;;;;;;;;;6.00;6.00;;;;;19.42;42.62;101168.31;5057723;28;45322;-54
2022/01/02 06:22:35;;;;;;;;;6.00;6.00;;;;;19.46;42.51;101143.59;5057276;28;46248;-56
2022/01/02 06:25:01;;;;;;;;;10.25;8.50;;;;;19.48;42.41;101131.22;5057186;28;45337;-56
2022/01/02 06:27:26;;;;;;;;;10.00;10.00;;;;;19.52;42.59;101155.59;5057632;28;45312;-56
2022/01/02 06:29:51;;;;;;;;;8.75;8.00;;;;;19.54;42.52;101164.28;5057441;28;45618;-55
2022/01/02 06:32:17;;;;;;;;;9.25;8.00;;;;;19.57;42.38;101153.59;5056892;28;46052;-58
2022/01/02 06:34:44;;;;;;;;;10.00;9.00;;;;;19.60;42.41;101185.00;5056829;28;45331;-55
2022/01/02 06:37:09;;;;;;;;;6.00;6.00;;;;;19.62;42.47;101201.59;5038876;28;45270;-56
2022/01/02 06:39:35;;;;;;;;;5.75;5.75;;;;;19.64;42.67;101194.47;5057314;28;45478;-57
2022/01/02 06:42:00;;;;;;;;;8.50;7.00;;;;;19.67;42.57;101181.19;5057050;28;46276;-56
2022/01/02 06:44:25;;;;;;;;;9.75;8.75;;;;;19.69;42.33;101189.00;5057218;28;45276;-56
2022/01/02 06:46:52;;;;;;;;;9.00;7.75;;;;;19.69;42.63;101175.84;5057004;28;45248;-57
2022/01/02 06:49:17;;;;;;;;;8.00;8.00;;;;;19.69;42.10;101189.84;5057065;28;45331;-56
2022/01/02 06:51:42;;;;;;;;;9.75;8.75;;;;;19.72;42.27;101191.50;5056683;28;46108;-57
2022/01/02 06:54:07;;;;;;;;;11.75;9.00;;;;;19.73;42.18;101188.78;5056681;28;45458;-55
2022/01/02 06:56:33;;;;;;;;;7.00;7.00;;;;;19.74;42.38;101185.25;5056737;28;45347;-55
2022/01/02 06:58:58;;;;;;;;;8.00;8.00;;;;;19.75;42.07;101181.69;5057263;28;45350;-54
2022/01/02 07:01:23;;;;;;;;;9.75;7.50;;;;;19.75;42.37;101194.84;5056586;28;45384;-55
2022/01/02 07:03:49;;;;;;;;;8.00;6.50;;;;;19.77;42.18;101182.47;5056507;28;45530;-56
2022/01/02 07:06:14;;;;;;;;;10.75;9.75;;;;;19.77;42.04;101198.25;5056661;28;45356;-54
2022/01/02 07:08:39;;;;;;;;;7.25;7.00;;;;;19.78;42.17;101181.56;5056764;28;45559;-55
2022/01/02 07:11:07;;;;;;;;;8.25;7.75;;;;;19.75;42.59;101170.31;5055627;28;46664;-56
2022/01/02 07:13:32;;;;;;;;;7.25;6.25;;;;;19.80;42.37;101184.09;5056354;28;45391;-55
2022/01/02 07:15:58;;;;;;;;;6.25;6.25;;;;;19.78;42.19;101191.19;5056913;28;45249;-54
2022/01/02 07:18:23;;;;;;;;;6.50;6.50;;;;;19.79;42.30;101195.53;5056710;28;45561;-55
2022/01/02 07:20:48;;;;;;;;;8.75;8.75;;;;;19.81;42.45;101204.22;5056281;28;49306;-55
2022/01/02 07:23:14;;;;;;;;;8.50;6.75;;;;;19.83;42.47;101204.13;5038261;28;45821;-57
2022/01/02 07:25:39;;;;;;;;;8.50;7.00;;;;;19.81;42.49;101193.69;5056525;28;45292;-54
2022/01/02 07:28:04;;;;;;;;;7.75;7.75;;;;;19.82;41.97;101199.81;5056674;28;45400;-57
2022/01/02 07:30:30;;;;;;;;;8.50;8.50;;;;;19.82;42.27;101205.06;5056477;28;46331;-56
2022/01/02 07:33:01;;;;;;;;;7.75;6.75;;;;;19.83;41.93;101217.28;5056189;28;45360;-56
2022/01/02 07:35:27;;;;;;;;;7.00;5.00;;;;;19.82;42.08;101219.09;5056098;28;45281;-55
2022/01/02 07:37:53;;;;;;;;;7.75;7.75;;;;;19.82;42.51;101208.56;5038469;28;45403;-57
2022/01/02 07:40:18;;;;;;;;;8.75;7.00;;;;;19.82;42.21;101219.09;5056199;28;45287;-56
2022/01/02 07:42:44;;;;;;;;;11.25;9.50;;;;;19.81;42.41;101221.75;5055891;28;45551;-55
2022/01/02 07:45:09;;;;;;;;;8.00;6.00;;;;;19.81;42.52;101227.03;5056200;28;45292;-57
2022/01/02 07:47:34;;;;;;;;;7.00;7.00;;;;;19.81;42.08;101234.91;5038049;28;45506;-55
2022/01/02 07:49:59;;;;;;;;;9.50;8.00;;;;;19.81;42.04;101233.16;5037966;28;47261;-56
2022/01/02 07:52:25;;;;;;;;;10.25;7.75;;;;;19.81;42.59;101240.19;5055566;28;52286;-57
2022/01/02 07:54:50;;;;;;;;;7.75;7.00;;;;;19.82;42.47;101252.41;5055880;28;45429;-58
2022/01/02 07:57:16;;;;;;;;;9.25;6.75;;;;;19.82;42.60;101260.28;5037954;28;45270;-55
2022/01/02 07:59:41;;;;;;;;;6.75;6.00;;;;;19.81;42.43;101264.72;5037604;28;47182;-56
2022/01/02 08:02:06;;;;;;;;;8.00;6.00;;;;;19.82;42.47;101265.56;5055705;28;45564;-54
2022/01/02 08:04:32;;;;;;;;;6.75;6.50;;;;;19.83;42.50;101272.53;5056184;28;46017;-55
2022/01/02 08:06:57;;;;;;;;;7.25;6.75;;;;;19.84;42.70;101280.38;5055939;28;45262;-57
2022/01/02 08:09:22;;;;;;;;;9.50;7.00;;;;;19.82;42.45;101286.59;5055290;28;46179;-58
2022/01/02 08:11:48;;;;;;;;;9.50;7.00;;;;;19.84;42.19;101300.53;5037587;28;45483;-56
2022/01/02 08:14:15;;;;;;;;;8.25;6.75;;;;;19.84;42.56;101305.81;5055533;28;45447;-56
2022/01/02 08:16:40;;;;;;;;;7.50;6.25;;;;;19.84;42.41;101301.41;5037853;28;45361;-58
2022/01/02 08:19:06;;;;;;;;;8.75;7.00;;;;;19.84;42.66;101290.03;5055384;28;46411;-56
2022/01/02 08:21:31;;;;;;;;;6.50;6.50;;;;;19.84;42.29;101300.53;5055824;28;45415;-56
2022/01/02 08:23:57;;;;;;;;;8.00;7.00;;;;;19.84;42.37;101311.06;5059158;28;45468;-56
2022/01/02 08:26:23;;;;;;;;;9.75;7.00;;;;;19.84;42.73;101306.69;5059443;28;45485;-55
2022/01/02 08:28:49;;;;;;;;;6.50;6.50;;;;;19.85;42.75;101304.88;5058945;28;47034;-57
2022/01/02 08:31:14;;;;;;;;;9.00;8.00;;;;;19.85;43.06;101313.63;5040949;28;45359;-54
2022/01/02 08:33:40;;;;;;;;;9.00;8.00;;;;;19.85;42.61;101308.34;5058862;28;45486;-55
2022/01/02 08:36:06;;;;;;;;;8.50;8.25;;;;;19.86;42.62;101304.00;5059507;28;45221;-60
2022/01/02 08:38:31;;;;;;;;;7.25;7.00;;;;;19.89;42.80;101301.25;5059019;28;45561;-59
2022/01/02 08:40:57;;;;;;;;;5.50;4.00;;;;;19.89;42.97;101303.88;5058870;28;45320;-55
2022/01/02 08:43:22;;;;;;;;;8.25;4.50;;;;;19.90;43.22;101310.81;5059023;28;45450;-55
2022/01/02 08:45:47;;;;;;;;;11.50;7.50;;;;;19.88;42.81;101303.00;5058893;28;45573;-58
2022/01/02 08:48:13;;;;;;;;;7.75;6.75;;;;;19.86;43.34;101307.47;5058547;28;46304;-55
2022/01/02 08:50:38;;;;;;;;;7.00;6.50;;;;;19.87;43.16;101310.97;5058808;28;45423;-57
2022/01/02 08:53:04;;;;;;;;;8.00;7.75;;;;;19.85;43.13;101303.09;5039628;28;45423;-56
2022/01/02 08:55:29;;;;;;;;;6.25;6.25;;;;;19.89;43.14;101314.38;5056544;28;45525;-59
2022/01/02 08:57:54;;;;;;;;;9.50;8.25;;;;;19.89;42.95;101311.75;5057530;28;45589;-55
2022/01/02 09:00:20;;;;;;;;;9.25;7.50;;;;;19.90;43.32;101327.47;5058283;28;45335;-54
2022/01/02 09:02:45;;;;;;;;;10.00;8.00;;;;;19.88;43.15;101320.56;5058523;28;45437;-54
2022/01/02 09:05:10;;;;;;;;;9.50;6.75;;;;;19.89;43.34;101331.00;5040602;28;45359;-57
2022/01/02 09:07:36;;;;;;;;;5.00;5.00;;;;;19.89;43.01;101340.69;5058385;28;45457;-54
2022/01/02 09:10:03;;;;;;;;;8.75;8.75;;;;;19.90;43.11;101342.38;5058393;28;45414;-56
2022/01/02 09:12:29;;;;;;;;;6.50;6.00;;;;;19.89;42.94;101338.06;5058350;28;45297;-56
2022/01/02 09:14:54;;;;;;;;;6.00;6.00;;;;;19.89;43.41;101343.31;5058376;28;45273;-54
2022/01/02 09:17:19;;;;;;;;;7.50;6.50;;;;;19.88;42.79;101341.63;5058118;28;45420;-56
2022/01/02 09:19:45;;;;;;;;;8.00;6.75;;;;;19.88;43.33;101352.13;5058068;28;45242;-55
2022/01/02 09:22:10;;;;;;;;;6.50;6.50;;;;;19.88;43.42;101339.81;5058233;28;45252;-58
2022/01/02 09:24:35;;;;;;;;;5.75;5.75;;;;;19.88;43.21;101344.25;5058719;28;45514;-55
2022/01/02 09:27:01;;;;;;;;;6.50;6.50;;;;;19.88;43.35;101354.75;5058070;28;46316;-60
2022/01/02 09:29:26;;;;;;;;;6.00;6.00;;;;;19.88;43.42;101360.03;5057985;28;45241;-55
2022/01/02 09:31:52;;;;;;;;;8.50;6.25;;;;;19.88;43.34;101365.28;5058160;28;45384;-56
2022/01/02 09:34:17;;;;;;;;;8.50;6.75;;;;;19.87;43.00;101363.59;5057654;28;45336;-55
2022/01/02 09:36:42;;;;;;;;;7.25;7.25;;;;;19.87;43.14;101368.84;5057762;28;46715;-55
2022/01/02 09:39:08;;;;;;;;;3.00;0.25;;;;;19.88;43.18;101365.28;5058122;28;45351;-56
2022/01/02 09:41:33;;;;;;;;;7.00;7.00;;;;;19.85;43.20;101366.22;5057956;28;45417;-53
2022/01/02 09:43:59;;;;;;;;;7.00;6.00;;;;;19.87;43.53;101358.31;5057991;28;45570;-56
2022/01/02 09:46:27;;;;;;;;;9.00;7.00;;;;;19.87;43.03;101361.78;5057569;28;46375;-56
2022/01/02 09:48:54;;;;;;;;;7.25;7.00;;;;;19.84;43.20;101348.75;5039658;28;45328;-57
2022/01/02 09:51:24;;;;;;;;;8.50;7.75;;;;;19.87;43.13;101358.31;5057814;28;45481;-56
2022/01/02 09:53:51;;;;;;;;;8.50;5.25;;;;;19.87;43.50;101358.31;5058058;28;45355;-55
2022/01/02 09:56:18;;;;;;;;;8.25;5.25;;;;;19.86;43.43;101357.44;5057517;28;46592;-56
2022/01/02 09:58:44;;;;;;;;;7.00;7.00;;;;;19.88;43.33;101354.75;5057529;28;45327;-55
2022/01/02 10:01:18;;;;;;;;;5.25;5.25;;;;;19.87;43.07;101353.06;5057936;28;45225;-57
2022/01/02 10:03:46;;;;;;;;;8.25;5.50;;;;;19.89;43.21;101359.09;5057686;28;45250;-57
2022/01/02 10:06:13;;;;;;;;;4.25;4.00;;;;;19.88;43.09;101362.66;5057246;28;45476;-57
2022/01/02 10:08:38;;;;;;;;;9.00;7.75;;;;;19.88;42.93;101363.50;5057587;28;45270;-55
2022/01/02 10:11:06;;;;;;;;;7.00;5.50;;;;;19.90;42.84;101366.06;5057516;28;45324;-56
2022/01/02 10:13:40;;;;;;;;;8.25;7.75;;;;;19.90;43.27;101372.19;5057642;28;45483;-55
2022/01/02 10:16:31;;;;;;;;;6.25;6.25;;;;;19.91;43.12;101362.50;5057375;28;45709;-57
2022/01/02 10:18:57;;;;;;;;;6.00;5.75;;;;;19.91;42.86;101363.38;5057236;28;45832;-55
2022/01/02 10:21:33;;;;;;;;;8.75;7.75;;;;;19.92;43.20;101372.09;5057310;28;45314;-56
2022/01/02 10:24:17;;;;;;;;;7.75;6.25;;;;;19.92;43.32;101366.84;5057440;28;45641;-56
2022/01/02 10:27:02;;;;;;;;;4.25;4.25;;;;;19.92;43.25;101356.31;5057065;28;45511;-57
2022/01/02 10:29:40;;;;;;;;;5.50;5.50;;;;;19.91;43.18;101352.84;5057085;28;45870;-58
2022/01/02 10:32:30;;;;;;;;;6.00;6.00;;;;;19.93;42.96;101356.28;5057114;28;45371;-56
2022/01/02 10:35:10;;;;;;;;;6.00;6.00;;;;;19.93;43.24;101363.28;5039045;28;45290;-57
2022/01/02 10:37:37;;;;;;;;;5.50;5.50;;;;;19.91;43.39;101359.88;5038901;28;48178;-55
2022/01/02 10:40:03;;;;;;;;;7.75;6.00;;;;;19.93;42.96;101363.28;5057087;28;45665;-55
2022/01/02 10:42:28;;;;;;;;;6.75;6.00;;;;;19.93;43.47;101368.56;5038982;28;45272;-55
2022/01/02 10:44:54;;;;;;;;;6.50;6.50;;;;;19.93;43.54;101358.03;5056149;28;45604;-56
2022/01/02 10:47:22;;;;;;;;;8.25;6.00;;;;;19.93;43.16;101360.66;5056647;28;45442;-56
2022/01/02 10:50:04;;;;;;;;;6.00;5.00;;;;;19.92;43.12;101361.59;5056869;28;45751;-57
2022/01/02 10:52:46;;;;;;;;;5.50;5.50;;;;;19.91;43.52;101359.88;5056908;28;45375;-55
2022/01/02 10:55:18;;;;;;;;;7.75;5.00;;;;;19.92;43.27;101359.81;5057448;28;45307;-57
2022/01/02 10:57:49;;;;;;;;;7.00;6.00;;;;;19.91;42.85;101360.75;5056517;28;46793;-53
2022/01/02 11:00:19;;;;;;;;;6.50;5.00;;;;;19.92;43.47;101358.94;5056528;28;45356;-54
2022/01/02 11:02:45;;;;;;;;;5.25;5.25;;;;;19.91;43.18;101354.59;5056061;28;45373;-57
2022/01/02 11:05:13;;;;;;;;;5.75;5.75;;;;;19.89;43.55;101356.47;5057203;28;45487;-54
2022/01/02 11:07:45;;;;;;;;;5.25;5.25;;;;;19.90;43.40;101364.28;5056477;28;45455;-57
2022/01/02 11:10:13;;;;;;;;;6.00;6.00;;;;;19.89;43.73;101359.94;5056515;28;45809;-55
2022/01/02 11:12:40;;;;;;;;;5.00;5.00;;;;;19.91;43.68;101365.13;5038995;28;45352;-57
2022/01/02 11:15:08;;;;;;;;;5.00;5.00;;;;;19.89;43.26;101359.94;5056625;28;45219;-55
2022/01/02 11:17:37;;;;;;;;;7.00;5.00;;;;;19.89;43.52;101354.69;5038300;28;46309;-55
2022/01/02 11:20:09;;;;;;;;;6.25;6.25;;;;;19.90;43.26;101358.16;5056286;28;45290;-56
2022/01/02 11:22:44;;;;;;;;;7.25;6.00;;;;;19.89;43.39;101353.84;5056475;28;45289;-55
2022/01/02 11:25:39;;;;;;;;;5.75;5.75;;;;;19.89;43.40;101351.22;5056870;28;45415;-55
2022/01/02 11:28:13;;;;;;;;;4.00;4.00;;;;;19.89;43.40;101351.22;5029285;28;46510;-54
2022/01/02 11:30:40;;;;;;;;;5.50;5.50;;;;;19.88;43.28;101357.41;5056374;28;45395;-55
2022/01/02 11:33:12;;;;;;;;;3.75;3.75;;;;;19.87;43.46;101348.63;5056367;28;45284;-57